sensor_id;sensor_type;location;lat;lon;timestamp;P1;durP1;ratioP1;P2;durP2;ratioP2
30036;SDS011;36325;51.512;-0.382;2023-07-29T00:00:53;0.95;;;0.75;;
30036;SDS011;36325;51.512;-0.382;2023-07-29T00:03:22;3.30;;;1.25;;
30036;SDS011;36325;51.512;-0.382;2023-07-29T00:05:50;1.92;;;1.00;;
30036;SDS011;36325;51.512;-0.382;2023-07-29T00:08:18;4.82;;;1.02;;
30036;SDS011;36325;51.512;-0.382;2023-07-29T00:10:47;2.55;;;0.80;;
30036;SDS011;36325;51.512;-0.382;2023-07-29T00:13:15;2.03;;;0.95;;
30036;SDS011;36325;51.512;-0.382;2023-07-29T00:15:46;3.08;;;1.00;;
30036;SDS011;36325;51.512;-0.382;2023-07-29T00:18:13;2.45;;;1.00;;
30036;SDS011;36325;51.512;-0.382;2023-07-29T00:20:43;3.53;;;1.30;;
30036;SDS011;36325;51.512;-0.382;2023-07-29T00:23:10;4.20;;;1.52;;
30036;SDS011;36325;51.512;-0.382;2023-07-29T00:25:38;7.25;;;1.50;;
30036;SDS011;36325;51.512;-0.382;2023-07-29T00:28:05;3.30;;;1.35;;
30036;SDS011;36325;51.512;-0.382;2023-07-29T00:30:33;5.00;;;1.23;;
30036;SDS011;36325;51.512;-0.382;2023-07-29T00:33:01;3.33;;;1.60;;
30036;SDS011;36325;51.512;-0.382;2023-07-29T00:35:29;3.92;;;1.30;;
30036;SDS011;36325;51.512;-0.382;2023-07-29T00:37:59;4.03;;;1.67;;
30036;SDS011;36325;51.512;-0.382;2023-07-29T00:40:27;3.03;;;1.55;;
30036;SDS011;36325;51.512;-0.382;2023-07-29T00:42:56;4.13;;;1.90;;
30036;SDS011;36325;51.512;-0.382;2023-07-29T00:45:24;5.43;;;1.88;;
30036;SDS011;36325;51.512;-0.382;2023-07-29T00:47:54;4.97;;;2.05;;
30036;SDS011;36325;51.512;-0.382;2023-07-29T00:50:22;4.20;;;2.45;;
30036;SDS011;36325;51.512;-0.382;2023-07-29T00:52:49;8.88;;;1.80;;
30036;SDS011;36325;51.512;-0.382;2023-07-29T00:55:17;9.93;;;2.30;;
30036;SDS011;36325;51.512;-0.382;2023-07-29T00:57:46;4.13;;;1.52;;
30036;SDS011;36325;51.512;-0.382;2023-07-29T01:00:16;6.28;;;3.00;;
30036;SDS011;36325;51.512;-0.382;2023-07-29T01:02:43;13.93;;;2.80;;
30036;SDS011;36325;51.512;-0.382;2023-07-29T01:05:12;5.70;;;2.05;;
30036;SDS011;36325;51.512;-0.382;2023-07-29T01:11:03;7.35;;;2.35;;
30036;SDS011;36325;51.512;-0.382;2023-07-29T01:14:05;6.28;;;2.20;;
30036;SDS011;36325;51.512;-0.382;2023-07-29T01:16:42;5.45;;;2.25;;
30036;SDS011;36325;51.512;-0.382;2023-07-29T01:19:40;5.47;;;2.42;;
30036;SDS011;36325;51.512;-0.382;2023-07-29T01:22:22;5.82;;;2.33;;
30036;SDS011;36325;51.512;-0.382;2023-07-29T01:24:51;7.70;;;3.13;;
30036;SDS011;36325;51.512;-0.382;2023-07-29T01:27:18;5.03;;;2.25;;
30036;SDS011;36325;51.512;-0.382;2023-07-29T01:29:48;4.47;;;2.30;;
30036;SDS011;36325;51.512;-0.382;2023-07-29T01:32:25;4.57;;;2.67;;
30036;SDS011;36325;51.512;-0.382;2023-07-29T01:38:04;4.80;;;2.50;;
30036;SDS011;36325;51.512;-0.382;2023-07-29T01:40:36;6.22;;;2.13;;
30036;SDS011;36325;51.512;-0.382;2023-07-29T01:43:03;4.32;;;2.60;;
30036;SDS011;36325;51.512;-0.382;2023-07-29T01:45:31;8.15;;;2.70;;
30036;SDS011;36325;51.512;-0.382;2023-07-29T01:48:02;6.72;;;2.50;;
30036;SDS011;36325;51.512;-0.382;2023-07-29T01:50:30;8.48;;;2.97;;
30036;SDS011;36325;51.512;-0.382;2023-07-29T01:53:01;4.13;;;2.58;;
30036;SDS011;36325;51.512;-0.382;2023-07-29T01:55:28;8.73;;;3.25;;
30036;SDS011;36325;51.512;-0.382;2023-07-29T01:57:56;7.30;;;2.83;;
30036;SDS011;36325;51.512;-0.382;2023-07-29T02:00:25;6.00;;;2.67;;
30036;SDS011;36325;51.512;-0.382;2023-07-29T02:02:53;8.77;;;3.42;;
30036;SDS011;36325;51.512;-0.382;2023-07-29T02:05:21;10.40;;;3.15;;
30036;SDS011;36325;51.512;-0.382;2023-07-29T02:07:49;14.48;;;3.38;;
30036;SDS011;36325;51.512;-0.382;2023-07-29T02:10:17;9.07;;;2.78;;
30036;SDS011;36325;51.512;-0.382;2023-07-29T02:12:45;10.40;;;2.83;;
30036;SDS011;36325;51.512;-0.382;2023-07-29T02:15:13;8.55;;;2.65;;
30036;SDS011;36325;51.512;-0.382;2023-07-29T02:17:41;9.68;;;3.55;;
30036;SDS011;36325;51.512;-0.382;2023-07-29T02:20:09;6.85;;;3.17;;
30036;SDS011;36325;51.512;-0.382;2023-07-29T02:22:37;9.35;;;3.17;;
30036;SDS011;36325;51.512;-0.382;2023-07-29T02:25:05;12.27;;;3.20;;
30036;SDS011;36325;51.512;-0.382;2023-07-29T02:27:34;7.32;;;2.92;;
30036;SDS011;36325;51.512;-0.382;2023-07-29T02:30:03;11.93;;;3.28;;
30036;SDS011;36325;51.512;-0.382;2023-07-29T02:32:31;7.70;;;2.95;;
30036;SDS011;36325;51.512;-0.382;2023-07-29T02:34:59;10.40;;;2.80;;
30036;SDS011;36325;51.512;-0.382;2023-07-29T02:37:26;8.50;;;3.00;;
30036;SDS011;36325;51.512;-0.382;2023-07-29T02:39:55;8.63;;;2.67;;
30036;SDS011;36325;51.512;-0.382;2023-07-29T02:42:22;4.18;;;2.72;;
30036;SDS011;36325;51.512;-0.382;2023-07-29T02:44:50;6.65;;;2.92;;
30036;SDS011;36325;51.512;-0.382;2023-07-29T02:47:18;12.55;;;3.25;;
30036;SDS011;36325;51.512;-0.382;2023-07-29T02:49:46;7.65;;;3.10;;
30036;SDS011;36325;51.512;-0.382;2023-07-29T02:52:13;6.53;;;2.78;;
30036;SDS011;36325;51.512;-0.382;2023-07-29T02:54:40;6.30;;;2.95;;
30036;SDS011;36325;51.512;-0.382;2023-07-29T02:57:08;7.72;;;2.88;;
30036;SDS011;36325;51.512;-0.382;2023-07-29T02:59:35;5.03;;;3.08;;
30036;SDS011;36325;51.512;-0.382;2023-07-29T03:02:03;7.45;;;3.47;;
30036;SDS011;36325;51.512;-0.382;2023-07-29T03:04:31;7.63;;;3.53;;
30036;SDS011;36325;51.512;-0.382;2023-07-29T03:07:00;8.10;;;3.42;;
30036;SDS011;36325;51.512;-0.382;2023-07-29T03:09:27;7.40;;;3.28;;
30036;SDS011;36325;51.512;-0.382;2023-07-29T03:11:55;9.05;;;3.42;;
30036;SDS011;36325;51.512;-0.382;2023-07-29T03:14:24;8.98;;;3.25;;
30036;SDS011;36325;51.512;-0.382;2023-07-29T03:16:53;12.77;;;4.40;;
30036;SDS011;36325;51.512;-0.382;2023-07-29T03:19:20;14.00;;;3.65;;
30036;SDS011;36325;51.512;-0.382;2023-07-29T03:21:49;7.72;;;3.35;;
30036;SDS011;36325;51.512;-0.382;2023-07-29T03:24:18;10.02;;;3.03;;
30036;SDS011;36325;51.512;-0.382;2023-07-29T03:26:45;7.85;;;3.53;;
30036;SDS011;36325;51.512;-0.382;2023-07-29T03:29:13;8.20;;;3.58;;
30036;SDS011;36325;51.512;-0.382;2023-07-29T03:31:40;8.85;;;2.80;;
30036;SDS011;36325;51.512;-0.382;2023-07-29T03:34:08;9.93;;;3.38;;
30036;SDS011;36325;51.512;-0.382;2023-07-29T03:36:39;11.40;;;4.05;;
30036;SDS011;36325;51.512;-0.382;2023-07-29T03:39:07;9.68;;;3.45;;
30036;SDS011;36325;51.512;-0.382;2023-07-29T03:41:36;13.15;;;3.97;;
30036;SDS011;36325;51.512;-0.382;2023-07-29T03:44:03;13.10;;;4.18;;
30036;SDS011;36325;51.512;-0.382;2023-07-29T03:46:31;5.72;;;2.63;;
30036;SDS011;36325;51.512;-0.382;2023-07-29T03:49:01;12.27;;;3.38;;
30036;SDS011;36325;51.512;-0.382;2023-07-29T03:51:28;12.13;;;3.97;;
30036;SDS011;36325;51.512;-0.382;2023-07-29T03:53:55;8.10;;;3.45;;
30036;SDS011;36325;51.512;-0.382;2023-07-29T03:56:23;10.48;;;3.60;;
30036;SDS011;36325;51.512;-0.382;2023-07-29T03:58:51;12.05;;;3.67;;
30036;SDS011;36325;51.512;-0.382;2023-07-29T04:01:20;14.50;;;3.90;;
30036;SDS011;36325;51.512;-0.382;2023-07-29T04:03:48;8.52;;;3.80;;
30036;SDS011;36325;51.512;-0.382;2023-07-29T04:06:17;10.07;;;3.97;;
30036;SDS011;36325;51.512;-0.382;2023-07-29T04:08:46;9.00;;;3.92;;
30036;SDS011;36325;51.512;-0.382;2023-07-29T04:11:15;10.23;;;3.88;;
30036;SDS011;36325;51.512;-0.382;2023-07-29T04:13:42;15.68;;;4.38;;
30036;SDS011;36325;51.512;-0.382;2023-07-29T04:16:10;13.48;;;4.57;;
30036;SDS011;36325;51.512;-0.382;2023-07-29T04:18:37;13.18;;;3.83;;
30036;SDS011;36325;51.512;-0.382;2023-07-29T04:21:07;8.65;;;3.50;;
30036;SDS011;36325;51.512;-0.382;2023-07-29T04:23:35;12.18;;;4.18;;
30036;SDS011;36325;51.512;-0.382;2023-07-29T04:26:06;13.13;;;4.22;;
30036;SDS011;36325;51.512;-0.382;2023-07-29T04:28:34;9.40;;;4.30;;
30036;SDS011;36325;51.512;-0.382;2023-07-29T04:31:02;14.40;;;4.70;;
30036;SDS011;36325;51.512;-0.382;2023-07-29T04:33:31;15.23;;;4.68;;
30036;SDS011;36325;51.512;-0.382;2023-07-29T04:36:02;7.40;;;3.55;;
30036;SDS011;36325;51.512;-0.382;2023-07-29T04:38:30;10.27;;;4.57;;
30036;SDS011;36325;51.512;-0.382;2023-07-29T04:43:30;12.63;;;3.78;;
30036;SDS011;36325;51.512;-0.382;2023-07-29T04:45:59;9.75;;;3.53;;
30036;SDS011;36325;51.512;-0.382;2023-07-29T04:48:27;10.00;;;3.92;;
30036;SDS011;36325;51.512;-0.382;2023-07-29T04:50:55;12.73;;;3.53;;
30036;SDS011;36325;51.512;-0.382;2023-07-29T04:53:22;11.63;;;4.10;;
30036;SDS011;36325;51.512;-0.382;2023-07-29T04:55:49;13.30;;;4.28;;
30036;SDS011;36325;51.512;-0.382;2023-07-29T04:58:17;8.13;;;3.40;;
30036;SDS011;36325;51.512;-0.382;2023-07-29T05:00:46;12.32;;;3.83;;
30036;SDS011;36325;51.512;-0.382;2023-07-29T05:03:17;11.30;;;3.70;;
30036;SDS011;36325;51.512;-0.382;2023-07-29T05:05:44;9.63;;;4.55;;
30036;SDS011;36325;51.512;-0.382;2023-07-29T05:08:13;9.90;;;3.40;;
30036;SDS011;36325;51.512;-0.382;2023-07-29T05:10:40;13.65;;;4.28;;
30036;SDS011;36325;51.512;-0.382;2023-07-29T05:13:08;9.48;;;3.85;;
30036;SDS011;36325;51.512;-0.382;2023-07-29T05:15:35;10.73;;;3.17;;
30036;SDS011;36325;51.512;-0.382;2023-07-29T05:18:03;11.35;;;3.83;;
30036;SDS011;36325;51.512;-0.382;2023-07-29T05:20:30;13.48;;;3.75;;
30036;SDS011;36325;51.512;-0.382;2023-07-29T05:22:58;12.15;;;3.67;;
30036;SDS011;36325;51.512;-0.382;2023-07-29T05:25:26;10.40;;;4.00;;
30036;SDS011;36325;51.512;-0.382;2023-07-29T05:27:54;11.95;;;4.07;;
30036;SDS011;36325;51.512;-0.382;2023-07-29T05:30:24;12.02;;;3.80;;
30036;SDS011;36325;51.512;-0.382;2023-07-29T05:32:56;17.30;;;4.38;;
30036;SDS011;36325;51.512;-0.382;2023-07-29T05:35:27;10.18;;;3.70;;
30036;SDS011;36325;51.512;-0.382;2023-07-29T05:37:56;13.00;;;3.53;;
30036;SDS011;36325;51.512;-0.382;2023-07-29T05:40:24;10.32;;;3.53;;
30036;SDS011;36325;51.512;-0.382;2023-07-29T05:42:51;8.38;;;3.47;;
30036;SDS011;36325;51.512;-0.382;2023-07-29T05:45:21;17.10;;;4.25;;
30036;SDS011;36325;51.512;-0.382;2023-07-29T05:47:50;11.20;;;3.30;;
30036;SDS011;36325;51.512;-0.382;2023-07-29T05:50:20;10.10;;;2.95;;
30036;SDS011;36325;51.512;-0.382;2023-07-29T05:52:48;10.68;;;4.43;;
30036;SDS011;36325;51.512;-0.382;2023-07-29T05:55:16;6.32;;;2.97;;
30036;SDS011;36325;51.512;-0.382;2023-07-29T05:57:44;8.82;;;3.78;;
30036;SDS011;36325;51.512;-0.382;2023-07-29T06:00:12;11.77;;;3.10;;
30036;SDS011;36325;51.512;-0.382;2023-07-29T06:02:39;11.05;;;3.78;;
30036;SDS011;36325;51.512;-0.382;2023-07-29T06:05:14;8.05;;;2.92;;
30036;SDS011;36325;51.512;-0.382;2023-07-29T06:07:42;6.30;;;2.92;;
30036;SDS011;36325;51.512;-0.382;2023-07-29T06:10:12;22.13;;;3.88;;
30036;SDS011;36325;51.512;-0.382;2023-07-29T06:12:45;7.18;;;2.83;;
30036;SDS011;36325;51.512;-0.382;2023-07-29T06:15:13;7.97;;;2.90;;
30036;SDS011;36325;51.512;-0.382;2023-07-29T06:17:40;10.75;;;3.20;;
30036;SDS011;36325;51.512;-0.382;2023-07-29T06:20:08;9.45;;;3.50;;
30036;SDS011;36325;51.512;-0.382;2023-07-29T06:22:36;10.50;;;3.33;;
30036;SDS011;36325;51.512;-0.382;2023-07-29T06:25:04;6.75;;;2.60;;
30036;SDS011;36325;51.512;-0.382;2023-07-29T06:27:35;8.57;;;3.03;;
30036;SDS011;36325;51.512;-0.382;2023-07-29T06:30:03;8.90;;;2.83;;
30036;SDS011;36325;51.512;-0.382;2023-07-29T06:32:31;5.63;;;2.40;;
30036;SDS011;36325;51.512;-0.382;2023-07-29T06:35:01;7.97;;;2.78;;
30036;SDS011;36325;51.512;-0.382;2023-07-29T06:37:28;9.05;;;2.33;;
30036;SDS011;36325;51.512;-0.382;2023-07-29T06:39:56;8.77;;;3.35;;
30036;SDS011;36325;51.512;-0.382;2023-07-29T06:42:24;16.70;;;2.63;;
30036;SDS011;36325;51.512;-0.382;2023-07-29T06:44:53;4.13;;;2.40;;
30036;SDS011;36325;51.512;-0.382;2023-07-29T06:47:21;8.38;;;2.50;;
30036;SDS011;36325;51.512;-0.382;2023-07-29T06:49:49;6.97;;;2.42;;
30036;SDS011;36325;51.512;-0.382;2023-07-29T06:52:17;5.18;;;2.42;;
30036;SDS011;36325;51.512;-0.382;2023-07-29T06:54:45;7.97;;;2.60;;
30036;SDS011;36325;51.512;-0.382;2023-07-29T06:57:12;5.80;;;2.30;;
30036;SDS011;36325;51.512;-0.382;2023-07-29T06:59:41;10.30;;;2.67;;
30036;SDS011;36325;51.512;-0.382;2023-07-29T07:02:08;5.13;;;1.88;;
30036;SDS011;36325;51.512;-0.382;2023-07-29T07:04:36;7.13;;;2.50;;
30036;SDS011;36325;51.512;-0.382;2023-07-29T07:07:04;8.02;;;2.33;;
30036;SDS011;36325;51.512;-0.382;2023-07-29T07:09:32;12.70;;;2.38;;
30036;SDS011;36325;51.512;-0.382;2023-07-29T07:12:00;9.07;;;2.47;;
30036;SDS011;36325;51.512;-0.382;2023-07-29T07:14:28;3.17;;;1.83;;
30036;SDS011;36325;51.512;-0.382;2023-07-29T07:16:57;5.53;;;2.75;;
30036;SDS011;36325;51.512;-0.382;2023-07-29T07:19:25;6.15;;;1.80;;
30036;SDS011;36325;51.512;-0.382;2023-07-29T07:21:54;7.30;;;2.30;;
30036;SDS011;36325;51.512;-0.382;2023-07-29T07:24:22;7.07;;;2.25;;
30036;SDS011;36325;51.512;-0.382;2023-07-29T07:26:52;8.70;;;1.88;;
30036;SDS011;36325;51.512;-0.382;2023-07-29T07:29:20;6.15;;;1.90;;
30036;SDS011;36325;51.512;-0.382;2023-07-29T07:31:51;6.05;;;2.45;;
30036;SDS011;36325;51.512;-0.382;2023-07-29T07:34:20;6.32;;;2.55;;
30036;SDS011;36325;51.512;-0.382;2023-07-29T07:36:48;7.90;;;2.20;;
30036;SDS011;36325;51.512;-0.382;2023-07-29T07:39:16;11.13;;;2.22;;
30036;SDS011;36325;51.512;-0.382;2023-07-29T07:41:52;5.88;;;2.17;;
30036;SDS011;36325;51.512;-0.382;2023-07-29T07:44:20;6.68;;;2.20;;
30036;SDS011;36325;51.512;-0.382;2023-07-29T07:46:47;8.68;;;1.83;;
30036;SDS011;36325;51.512;-0.382;2023-07-29T07:49:15;6.80;;;2.00;;
30036;SDS011;36325;51.512;-0.382;2023-07-29T07:51:43;8.65;;;2.08;;
30036;SDS011;36325;51.512;-0.382;2023-07-29T07:54:11;5.90;;;1.75;;
30036;SDS011;36325;51.512;-0.382;2023-07-29T07:56:42;5.30;;;2.03;;
30036;SDS011;36325;51.512;-0.382;2023-07-29T07:59:10;12.13;;;2.58;;
30036;SDS011;36325;51.512;-0.382;2023-07-29T08:01:40;6.50;;;2.75;;
30036;SDS011;36325;51.512;-0.382;2023-07-29T08:04:08;2.80;;;1.70;;
30036;SDS011;36325;51.512;-0.382;2023-07-29T08:06:38;7.68;;;2.08;;
30036;SDS011;36325;51.512;-0.382;2023-07-29T08:09:05;5.13;;;2.08;;
30036;SDS011;36325;51.512;-0.382;2023-07-29T08:11:33;9.57;;;2.00;;
30036;SDS011;36325;51.512;-0.382;2023-07-29T08:14:01;4.28;;;1.55;;
30036;SDS011;36325;51.512;-0.382;2023-07-29T08:16:29;5.28;;;2.10;;
30036;SDS011;36325;51.512;-0.382;2023-07-29T08:19:00;4.53;;;1.83;;
30036;SDS011;36325;51.512;-0.382;2023-07-29T08:21:29;2.30;;;1.23;;
30036;SDS011;36325;51.512;-0.382;2023-07-29T08:23:56;8.90;;;2.67;;
30036;SDS011;36325;51.512;-0.382;2023-07-29T08:26:25;12.07;;;2.03;;
30036;SDS011;36325;51.512;-0.382;2023-07-29T08:28:53;3.88;;;1.70;;
30036;SDS011;36325;51.512;-0.382;2023-07-29T08:31:20;5.35;;;1.90;;
30036;SDS011;36325;51.512;-0.382;2023-07-29T08:33:50;3.65;;;1.45;;
30036;SDS011;36325;51.512;-0.382;2023-07-29T08:36:18;8.18;;;2.20;;
30036;SDS011;36325;51.512;-0.382;2023-07-29T08:38:47;3.85;;;1.90;;
30036;SDS011;36325;51.512;-0.382;2023-07-29T08:44:15;3.03;;;1.80;;
30036;SDS011;36325;51.512;-0.382;2023-07-29T08:46:50;7.25;;;2.33;;
30036;SDS011;36325;51.512;-0.382;2023-07-29T08:49:20;5.03;;;1.80;;
30036;SDS011;36325;51.512;-0.382;2023-07-29T08:51:51;4.53;;;1.80;;
30036;SDS011;36325;51.512;-0.382;2023-07-29T08:54:35;4.88;;;1.20;;
30036;SDS011;36325;51.512;-0.382;2023-07-29T08:57:03;4.47;;;1.58;;
30036;SDS011;36325;51.512;-0.382;2023-07-29T08:59:34;7.10;;;1.70;;
30036;SDS011;36325;51.512;-0.382;2023-07-29T09:02:02;9.75;;;1.70;;
30036;SDS011;36325;51.512;-0.382;2023-07-29T09:04:36;9.75;;;2.00;;
30036;SDS011;36325;51.512;-0.382;2023-07-29T09:07:23;6.55;;;1.98;;
30036;SDS011;36325;51.512;-0.382;2023-07-29T09:12:24;12.18;;;2.28;;
30036;SDS011;36325;51.512;-0.382;2023-07-29T09:14:59;6.22;;;1.52;;
30036;SDS011;36325;51.512;-0.382;2023-07-29T09:17:42;4.30;;;1.30;;
30036;SDS011;36325;51.512;-0.382;2023-07-29T09:20:26;4.65;;;1.52;;
30036;SDS011;36325;51.512;-0.382;2023-07-29T09:22:58;7.88;;;1.60;;
30036;SDS011;36325;51.512;-0.382;2023-07-29T09:25:29;2.55;;;1.50;;
30036;SDS011;36325;51.512;-0.382;2023-07-29T09:28:14;3.75;;;1.63;;
30036;SDS011;36325;51.512;-0.382;2023-07-29T09:30:47;3.88;;;1.40;;
30036;SDS011;36325;51.512;-0.382;2023-07-29T09:33:20;4.97;;;2.45;;
30036;SDS011;36325;51.512;-0.382;2023-07-29T09:35:51;4.18;;;1.50;;
30036;SDS011;36325;51.512;-0.382;2023-07-29T09:38:25;7.03;;;2.08;;
30036;SDS011;36325;51.512;-0.382;2023-07-29T09:40:57;2.53;;;1.48;;
30036;SDS011;36325;51.512;-0.382;2023-07-29T09:43:35;4.15;;;1.30;;
30036;SDS011;36325;51.512;-0.382;2023-07-29T09:46:04;10.25;;;2.22;;
30036;SDS011;36325;51.512;-0.382;2023-07-29T09:48:34;4.57;;;1.77;;
30036;SDS011;36325;51.512;-0.382;2023-07-29T09:51:17;7.90;;;2.08;;
30036;SDS011;36325;51.512;-0.382;2023-07-29T09:54:24;4.30;;;1.63;;
30036;SDS011;36325;51.512;-0.382;2023-07-29T09:57:08;4.90;;;1.20;;
30036;SDS011;36325;51.512;-0.382;2023-07-29T09:59:36;3.58;;;1.83;;
30036;SDS011;36325;51.512;-0.382;2023-07-29T10:02:05;7.22;;;2.35;;
30036;SDS011;36325;51.512;-0.382;2023-07-29T10:04:41;4.32;;;1.92;;
30036;SDS011;36325;51.512;-0.382;2023-07-29T10:07:09;3.45;;;1.90;;
30036;SDS011;36325;51.512;-0.382;2023-07-29T10:09:39;6.40;;;1.85;;
30036;SDS011;36325;51.512;-0.382;2023-07-29T10:12:08;3.13;;;1.30;;
30036;SDS011;36325;51.512;-0.382;2023-07-29T10:14:52;11.25;;;1.60;;
30036;SDS011;36325;51.512;-0.382;2023-07-29T10:17:24;4.95;;;1.40;;
30036;SDS011;36325;51.512;-0.382;2023-07-29T10:19:57;4.38;;;1.63;;
30036;SDS011;36325;51.512;-0.382;2023-07-29T10:22:33;5.93;;;1.60;;
30036;SDS011;36325;51.512;-0.382;2023-07-29T10:25:17;9.90;;;2.15;;
30036;SDS011;36325;51.512;-0.382;2023-07-29T10:28:04;5.83;;;1.80;;
30036;SDS011;36325;51.512;-0.382;2023-07-29T10:30:37;4.18;;;2.28;;
30036;SDS011;36325;51.512;-0.382;2023-07-29T10:33:05;5.60;;;1.80;;
30036;SDS011;36325;51.512;-0.382;2023-07-29T10:35:33;5.72;;;1.92;;
30036;SDS011;36325;51.512;-0.382;2023-07-29T10:38:02;3.53;;;1.60;;
30036;SDS011;36325;51.512;-0.382;2023-07-29T10:51:38;5.30;;;1.80;;
30036;SDS011;36325;51.512;-0.382;2023-07-29T10:54:25;8.20;;;1.58;;
30036;SDS011;36325;51.512;-0.382;2023-07-29T10:57:13;3.22;;;1.60;;
30036;SDS011;36325;51.512;-0.382;2023-07-29T10:59:56;6.70;;;1.67;;
30036;SDS011;36325;51.512;-0.382;2023-07-29T11:02:32;4.38;;;1.52;;
30036;SDS011;36325;51.512;-0.382;2023-07-29T11:05:05;7.25;;;1.85;;
30036;SDS011;36325;51.512;-0.382;2023-07-29T11:07:44;5.93;;;1.52;;
30036;SDS011;36325;51.512;-0.382;2023-07-29T11:10:17;7.63;;;1.30;;
30036;SDS011;36325;51.512;-0.382;2023-07-29T11:16:14;8.38;;;2.10;;
30036;SDS011;36325;51.512;-0.382;2023-07-29T11:18:44;3.67;;;1.48;;
30036;SDS011;36325;51.512;-0.382;2023-07-29T11:21:15;5.35;;;2.33;;
30036;SDS011;36325;51.512;-0.382;2023-07-29T11:23:43;5.18;;;1.73;;
30036;SDS011;36325;51.512;-0.382;2023-07-29T11:26:15;7.78;;;1.75;;
30036;SDS011;36325;51.512;-0.382;2023-07-29T11:28:43;9.30;;;2.08;;
30036;SDS011;36325;51.512;-0.382;2023-07-29T11:31:16;6.93;;;1.58;;
30036;SDS011;36325;51.512;-0.382;2023-07-29T11:33:47;5.60;;;1.17;;
30036;SDS011;36325;51.512;-0.382;2023-07-29T11:36:18;7.35;;;1.45;;
30036;SDS011;36325;51.512;-0.382;2023-07-29T11:38:50;5.60;;;1.75;;
30036;SDS011;36325;51.512;-0.382;2023-07-29T11:41:33;3.42;;;1.40;;
30036;SDS011;36325;51.512;-0.382;2023-07-29T11:44:01;6.38;;;1.55;;
30036;SDS011;36325;51.512;-0.382;2023-07-29T11:46:29;6.40;;;1.70;;
30036;SDS011;36325;51.512;-0.382;2023-07-29T11:48:56;3.65;;;1.45;;
30036;SDS011;36325;51.512;-0.382;2023-07-29T11:51:26;5.22;;;1.70;;
30036;SDS011;36325;51.512;-0.382;2023-07-29T11:53:53;5.70;;;1.00;;
30036;SDS011;36325;51.512;-0.382;2023-07-29T11:56:22;3.42;;;1.25;;
30036;SDS011;36325;51.512;-0.382;2023-07-29T11:58:51;5.80;;;1.38;;
30036;SDS011;36325;51.512;-0.382;2023-07-29T12:01:20;4.38;;;1.10;;
30036;SDS011;36325;51.512;-0.382;2023-07-29T12:03:49;3.25;;;1.10;;
30036;SDS011;36325;51.512;-0.382;2023-07-29T12:06:18;4.72;;;1.20;;
30036;SDS011;36325;51.512;-0.382;2023-07-29T12:08:47;3.35;;;1.42;;
30036;SDS011;36325;51.512;-0.382;2023-07-29T12:11:18;5.50;;;1.42;;
30036;SDS011;36325;51.512;-0.382;2023-07-29T12:13:47;4.07;;;1.40;;
30036;SDS011;36325;51.512;-0.382;2023-07-29T12:16:16;6.47;;;1.42;;
30036;SDS011;36325;51.512;-0.382;2023-07-29T12:18:45;5.95;;;0.98;;
30036;SDS011;36325;51.512;-0.382;2023-07-29T12:21:13;5.50;;;0.95;;
30036;SDS011;36325;51.512;-0.382;2023-07-29T12:23:43;2.88;;;0.93;;
30036;SDS011;36325;51.512;-0.382;2023-07-29T12:26:12;3.15;;;1.13;;
30036;SDS011;36325;51.512;-0.382;2023-07-29T12:28:44;3.92;;;1.08;;
30036;SDS011;36325;51.512;-0.382;2023-07-29T12:31:14;6.10;;;1.00;;
30036;SDS011;36325;51.512;-0.382;2023-07-29T12:33:44;4.00;;;0.93;;
30036;SDS011;36325;51.512;-0.382;2023-07-29T12:36:12;3.00;;;1.23;;
30036;SDS011;36325;51.512;-0.382;2023-07-29T12:38:42;6.82;;;1.38;;
30036;SDS011;36325;51.512;-0.382;2023-07-29T12:41:11;6.33;;;1.00;;
30036;SDS011;36325;51.512;-0.382;2023-07-29T12:43:38;4.75;;;0.90;;
30036;SDS011;36325;51.512;-0.382;2023-07-29T12:46:08;4.57;;;0.73;;
30036;SDS011;36325;51.512;-0.382;2023-07-29T12:48:35;13.35;;;1.27;;
30036;SDS011;36325;51.512;-0.382;2023-07-29T12:51:04;4.00;;;1.05;;
30036;SDS011;36325;51.512;-0.382;2023-07-29T12:53:39;3.55;;;0.85;;
30036;SDS011;36325;51.512;-0.382;2023-07-29T12:56:11;1.67;;;0.90;;
30036;SDS011;36325;51.512;-0.382;2023-07-29T12:58:48;4.93;;;0.98;;
30036;SDS011;36325;51.512;-0.382;2023-07-29T13:01:17;4.68;;;1.00;;
30036;SDS011;36325;51.512;-0.382;2023-07-29T13:03:50;4.28;;;1.00;;
30036;SDS011;36325;51.512;-0.382;2023-07-29T13:06:20;2.88;;;0.95;;
30036;SDS011;36325;51.512;-0.382;2023-07-29T13:08:49;5.00;;;1.77;;
30036;SDS011;36325;51.512;-0.382;2023-07-29T13:11:20;5.68;;;1.30;;
30036;SDS011;36325;51.512;-0.382;2023-07-29T13:13:49;3.33;;;1.25;;
30036;SDS011;36325;51.512;-0.382;2023-07-29T13:16:20;2.83;;;1.05;;
30036;SDS011;36325;51.512;-0.382;2023-07-29T13:18:49;4.53;;;1.15;;
30036;SDS011;36325;51.512;-0.382;2023-07-29T13:21:26;3.28;;;1.40;;
30036;SDS011;36325;51.512;-0.382;2023-07-29T13:23:59;5.27;;;1.00;;
30036;SDS011;36325;51.512;-0.382;2023-07-29T13:26:27;3.13;;;1.02;;
30036;SDS011;36325;51.512;-0.382;2023-07-29T13:28:57;4.40;;;1.20;;
30036;SDS011;36325;51.512;-0.382;2023-07-29T13:31:35;3.55;;;0.93;;
30036;SDS011;36325;51.512;-0.382;2023-07-29T13:34:16;4.13;;;0.93;;
30036;SDS011;36325;51.512;-0.382;2023-07-29T13:36:45;3.85;;;1.10;;
30036;SDS011;36325;51.512;-0.382;2023-07-29T13:39:14;9.50;;;1.45;;
30036;SDS011;36325;51.512;-0.382;2023-07-29T13:41:42;4.43;;;1.13;;
30036;SDS011;36325;51.512;-0.382;2023-07-29T13:44:11;3.67;;;1.40;;
30036;SDS011;36325;51.512;-0.382;2023-07-29T13:46:52;5.47;;;1.10;;
30036;SDS011;36325;51.512;-0.382;2023-07-29T13:49:29;4.60;;;0.98;;
30036;SDS011;36325;51.512;-0.382;2023-07-29T13:51:58;5.28;;;1.08;;
30036;SDS011;36325;51.512;-0.382;2023-07-29T13:54:32;1.80;;;0.82;;
30036;SDS011;36325;51.512;-0.382;2023-07-29T13:57:06;1.98;;;0.88;;
30036;SDS011;36325;51.512;-0.382;2023-07-29T13:59:35;5.82;;;0.77;;
30036;SDS011;36325;51.512;-0.382;2023-07-29T14:02:05;5.50;;;1.17;;
30036;SDS011;36325;51.512;-0.382;2023-07-29T14:04:34;4.75;;;1.02;;
30036;SDS011;36325;51.512;-0.382;2023-07-29T14:07:02;3.22;;;0.90;;
30036;SDS011;36325;51.512;-0.382;2023-07-29T14:09:31;3.50;;;0.80;;
30036;SDS011;36325;51.512;-0.382;2023-07-29T14:11:58;3.50;;;0.82;;
30036;SDS011;36325;51.512;-0.382;2023-07-29T14:14:26;4.28;;;1.13;;
30036;SDS011;36325;51.512;-0.382;2023-07-29T14:16:53;5.63;;;1.33;;
30036;SDS011;36325;51.512;-0.382;2023-07-29T14:19:21;10.75;;;1.73;;
30036;SDS011;36325;51.512;-0.382;2023-07-29T14:21:50;7.88;;;1.83;;
30036;SDS011;36325;51.512;-0.382;2023-07-29T14:24:19;9.02;;;1.38;;
30036;SDS011;36325;51.512;-0.382;2023-07-29T14:26:48;5.97;;;1.23;;
30036;SDS011;36325;51.512;-0.382;2023-07-29T14:29:16;4.13;;;1.50;;
30036;SDS011;36325;51.512;-0.382;2023-07-29T14:31:43;5.80;;;1.13;;
30036;SDS011;36325;51.512;-0.382;2023-07-29T14:34:11;4.90;;;1.27;;
30036;SDS011;36325;51.512;-0.382;2023-07-29T14:41:41;7.28;;;1.20;;
30036;SDS011;36325;51.512;-0.382;2023-07-29T14:44:11;2.65;;;1.23;;
30036;SDS011;36325;51.512;-0.382;2023-07-29T14:46:39;2.97;;;1.02;;
30036;SDS011;36325;51.512;-0.382;2023-07-29T14:49:06;7.53;;;1.13;;
30036;SDS011;36325;51.512;-0.382;2023-07-29T14:51:34;6.45;;;1.40;;
30036;SDS011;36325;51.512;-0.382;2023-07-29T14:54:02;3.72;;;1.30;;
30036;SDS011;36325;51.512;-0.382;2023-07-29T14:56:30;10.38;;;1.77;;
30036;SDS011;36325;51.512;-0.382;2023-07-29T14:58:58;6.82;;;1.60;;
30036;SDS011;36325;51.512;-0.382;2023-07-29T15:01:25;4.93;;;1.30;;
30036;SDS011;36325;51.512;-0.382;2023-07-29T15:03:52;6.53;;;1.65;;
30036;SDS011;36325;51.512;-0.382;2023-07-29T15:06:20;6.47;;;1.65;;
30036;SDS011;36325;51.512;-0.382;2023-07-29T15:08:48;6.82;;;1.52;;
30036;SDS011;36325;51.512;-0.382;2023-07-29T15:11:17;6.63;;;1.40;;
30036;SDS011;36325;51.512;-0.382;2023-07-29T15:13:47;7.57;;;1.17;;
30036;SDS011;36325;51.512;-0.382;2023-07-29T15:16:14;6.88;;;1.35;;
30036;SDS011;36325;51.512;-0.382;2023-07-29T15:18:45;6.13;;;1.25;;
30036;SDS011;36325;51.512;-0.382;2023-07-29T15:21:14;5.55;;;1.42;;